Map

Track Data

SID SEASON NUMBER BASIN SUBBASIN NAME ISO_TIME NATURE LAT LON WMO_WIND WMO_PRES WMO_AGENCY TRACK_TYPE DIST2LAND LANDFALL IFLAG USA_AGENCY USA_ATCF_ID USA_LAT USA_LON USA_RECORD USA_STATUS USA_WIND USA_PRES USA_SSHS USA_R34_NE USA_R34_SE USA_R34_SW USA_R34_NW USA_R50_NE USA_R50_SE USA_R50_SW USA_R50_NW USA_R64_NE USA_R64_SE USA_R64_SW USA_R64_NW USA_POCI USA_ROCI USA_RMW USA_EYE TOKYO_LAT TOKYO_LON TOKYO_GRADE TOKYO_WIND TOKYO_PRES TOKYO_R50_DIR TOKYO_R50_LONG TOKYO_R50_SHORT TOKYO_R30_DIR TOKYO_R30_LONG TOKYO_R30_SHORT TOKYO_LAND CMA_LAT CMA_LON CMA_CAT CMA_WIND CMA_PRES HKO_LAT HKO_LON HKO_CAT HKO_WIND HKO_PRES NEWDELHI_LAT NEWDELHI_LON NEWDELHI_GRADE NEWDELHI_WIND NEWDELHI_PRES NEWDELHI_CI NEWDELHI_DP NEWDELHI_POCI REUNION_LAT REUNION_LON REUNION_TYPE REUNION_WIND REUNION_PRES REUNION_TNUM REUNION_CI REUNION_RMW REUNION_R34_NE REUNION_R34_SE REUNION_R34_SW REUNION_R34_NW REUNION_R50_NE REUNION_R50_SE REUNION_R50_SW REUNION_R50_NW REUNION_R64_NE REUNION_R64_SE REUNION_R64_SW REUNION_R64_NW BOM_LAT BOM_LON BOM_TYPE BOM_WIND BOM_PRES BOM_TNUM BOM_CI BOM_RMW BOM_R34_NE BOM_R34_SE BOM_R34_SW BOM_R34_NW BOM_R50_NE BOM_R50_SE BOM_R50_SW BOM_R50_NW BOM_R64_NE BOM_R64_SE BOM_R64_SW BOM_R64_NW BOM_ROCI BOM_POCI BOM_EYE BOM_POS_METHOD BOM_PRES_METHOD NADI_LAT NADI_LON NADI_CAT NADI_WIND NADI_PRES WELLINGTON_LAT WELLINGTON_LON WELLINGTON_WIND WELLINGTON_PRES DS824_LAT DS824_LON DS824_STAGE DS824_WIND DS824_PRES TD9636_LAT TD9636_LON TD9636_STAGE TD9636_WIND TD9636_PRES TD9635_LAT TD9635_LON TD9635_WIND TD9635_PRES TD9635_ROCI NEUMANN_LAT NEUMANN_LON NEUMANN_CLASS NEUMANN_WIND NEUMANN_PRES MLC_LAT MLC_LON MLC_CLASS MLC_WIND MLC_PRES USA_GUST BOM_GUST BOM_GUST_PER REUNION_GUST REUNION_GUST_PER USA_SEAHGT USA_SEARAD_NE USA_SEARAD_SE USA_SEARAD_SW USA_SEARAD_NW STORM_SPEED STORM_DIR
2012060S12069 2012 13 SI MM NOT_NAMED 2012-02-28 12:00:00 TS -11.7000 69.4000 main 1564 1552 O_____________ jtwc_sh SH152012 -11.7000 69.4000 TD 25 1004 -1 6 152
2012060S12069 2012 13 SI MM NOT_NAMED 2012-02-28 15:00:00 TS -11.9725 69.5499 main 1552 1547 P_____________ SH152012 -11.9725 69.5499 TD 25 1004 -1 5 159
2012060S12069 2012 13 SI MM NOT_NAMED 2012-02-28 18:00:00 TS -12.2000 69.6000 main 1547 1532 O_____________ jtwc_sh SH152012 -12.2000 69.6000 TD 25 1004 -1 4 191
2012060S12069 2012 13 SI MM NOT_NAMED 2012-02-28 21:00:00 TS -12.3574 69.4750 main 1525 1492 P_____________ SH152012 -12.3574 69.4750 TD 25 1004 -1 5 232
2012060S12069 2012 13 SI MM NOT_NAMED 2012-02-29 00:00:00 TS -12.5000 69.2000 main 1492 1444 O_____________ jtwc_sh SH152012 -12.5000 69.2000 TD 25 1004 -1 7 243
2012060S12069 2012 13 SI MM NOT_NAMED 2012-02-29 03:00:00 TS -12.6776 68.8225 main 1444 1396 P_____________ SH152012 -12.6776 68.8225 TD 27 1002 -1 9 243
2012060S12069 2012 13 SI MM NOT_NAMED 2012-02-29 06:00:00 TS -12.9000 68.4000 main 1396 1349 O_____________ jtwc_sh SH152012 -12.9000 68.4000 TD 30 1000 -1 1005 200 40 9 235
2012060S12069 2012 13 SI MM NOT_NAMED 2012-02-29 09:00:00 TS -13.1999 68.0500 main 1349 1295 P_____________ SH152012 -13.1999 68.0500 TD 30 1000 -1 1005 200 40 9 229
2012060S12069 2012 13 SI MM NOT_NAMED 2012-02-29 12:00:00 TS -13.5000 67.7000 main 1295 1255 O_____________ jtwc_sh SH152012 -13.5000 67.7000 TD 30 1000 -1 1005 200 40 9 234
2012060S12069 2012 13 SI MM NOT_NAMED 2012-02-29 15:00:00 TS -13.7073 67.3298 main 1247 1198 P_____________ SH152012 -13.7073 67.3298 TD 32 998 -1 1004 192 37 9 243
2012060S12069 2012 13 SI MM NOT_NAMED 2012-02-29 18:00:00 TS -13.9000 66.9000 main 1198 1135 O_____________ jtwc_sh SH152012 -13.9000 66.9000 TS 35 996 0 1003 185 35 10 244
2012060S12069 2012 13 SI MM NOT_NAMED 2012-02-29 21:00:00 TS -14.1726 66.3652 main 1135 1070 P_____________ SH152012 -14.1726 66.3652 TS 35 996 0 1003 185 35 12 245
2012060S12069 2012 13 SI MM NOT_NAMED 2012-03-01 00:00:00 TS -14.4000 65.8000 main 1070 1021 O_____________ jtwc_sh SH152012 -14.4000 65.8000 TS 35 996 0 1003 185 35 11 255
2012060S12069 2012 13 SI MM NOT_NAMED 2012-03-01 03:00:00 TS -14.4650 65.2622 main 1021 980 P_____________ SH152012 -14.4650 65.2622 TS 35 996 0 1003 185 35 10 264
2012060S12069 2012 13 SI MM NOT_NAMED 2012-03-01 06:00:00 TS -14.5000 64.8000 main 980 948 O_____________ jtwc_sh SH152012 -14.5000 64.8000 TS 35 996 0 1003 185 35 8 258
2012060S12069 2012 13 SI MM NOT_NAMED 2012-03-01 09:00:00 TS -14.6273 64.4625 main 948 909 P_____________ SH152012 -14.6273 64.4625 TS 35 996 0 1003 185 35 7 243
2012060S12069 2012 13 SI MM NOT_NAMED 2012-03-01 12:00:00 TS -14.8000 64.2000 main 909 870 O_____________ jtwc_sh SH152012 -14.8000 64.2000 TS 35 996 0 1003 185 35 6 236
2012060S12069 2012 13 SI MM NOT_NAMED 2012-03-01 15:00:00 TS -14.9850 63.9051 main 870 839 P_____________ SH152012 -14.9850 63.9051 TS 32 998 -1 1003 185 40 6 230
2012060S12069 2012 13 SI MM NOT_NAMED 2012-03-01 18:00:00 TS -15.2000 63.7000 main 839 824 O_____________ jtwc_sh SH152012 -15.2000 63.7000 TD 30 1000 -1 1003 185 45 5 207
2012060S12069 2012 13 SI MM NOT_NAMED 2012-03-01 21:00:00 TS -15.4275 63.6699 main 824 803 P_____________ SH152012 -15.4275 63.6699 TD 30 1000 -1 1003 185 45 5 178
2012060S12069 2012 13 SI MM NOT_NAMED 2012-03-02 00:00:00 TS -15.7000 63.7000 main 803 767 O_____________ jtwc_sh SH152012 -15.7000 63.7000 TD 30 1000 -1 1003 185 45 7 183
2012060S12069 2012 13 SI MM NOT_NAMED 2012-03-02 03:00:00 TS -16.0800 63.6201 main 767 747 P_____________ SH152012 -16.0800 63.6201 TD 25 1003 -1 1003 185 45 7 188
2012060S12069 2012 13 SI MM NOT_NAMED 2012-03-02 06:00:00 NR -16.4000 63.6000 main 747 741 O_____________ jtwc_sh SH152012 -16.4000 63.6000 DB 20 1007 -3 1003 185 45 5 164
2012060S12069 2012 13 SI MM NOT_NAMED 2012-03-02 09:00:00 NR -16.5151 63.7475 main 750 750 P_____________ SH152012 -16.5151 63.7475 DB 20 1007 -3 4 105
2012060S12069 2012 13 SI MM NOT_NAMED 2012-03-02 12:00:00 NR -16.5000 64.0000 main 777 O_____________ jtwc_sh SH152012 -16.5000 64.0000 DB 20 1007 -3 5 86

About IBTrACS Database

This database is a web-friendly format of International Best Track Archive for Climate Stewardship (IBTrACS), a global best track data archive curated by NOAA dating back to 1842.

Updated: 2021-10-08